イスタンブル の空港の天気 - METARとTAF

アタテュルク国際空港(イスタンブル) ( LTBA / IST ) - トルコ イスタンブル
飛行場実況気象(Metar)
観測時間11/17 20:50 EET (11/17 17:50 UTC)
風向・風速東 5m/s
視程10km以上
天気現象
全天の4割程度の雲 雲底高度 1220m
全天の8割程度の雲 雲底高度 3050m
気温12℃
湿度67%
気圧1025hPa
METARLTBA 171750Z 08010KT 9999 SCT040 BKN100 12/06 Q1025 NOSIG RMK RWY17L 07008KT 040V100 RWY05 06010KT RWY23 08010KT
過去の天気等 Google飛行場航空写真 Wunderground天気予報

過去48時間のMETAR

飛行場予報(TAF)
発表時間: 11/17 19:40 EET (11/17 16:40 UTC)
予報対象時間: 17日21時 EET ~ 19日3時 EET
風向・風速北東 6m/s
視程10km以上
全天の4割程度の雲 雲底高度 1220m
全天の8割程度の雲 雲底高度 3050m
18日1時 EET ~ 18日5時 EET に徐々に
全天の8割程度の雲 雲底高度 910m
全天の8割程度の雲 雲底高度 2740m
18日17時 EET ~ 18日21時 EET に一時的に
天気現象弱いしゅう雨
18日20時 EET ~ 18日24時 EET に徐々に
風向・風速東南東 5m/s
TAF LTBA 171640Z 1718/1824 04012KT 9999 SCT040 BKN100
BECMG 1722/1802 BKN030 BKN090
TEMPO 1814/1818 -SHRA
BECMG 1817/1821 11009KT